sensor_id;sensor_type;location;lat;lon;timestamp;pressure;altitude;pressure_sealevel;temperature;humidity
73316;BME280;61545;53.726;-0.444;2022-07-01T00:01:36;1008.9;;;15.4;74.1
73316;BME280;61545;53.726;-0.444;2022-07-01T00:06:36;1008.9;;;15.3;74.3
73316;BME280;61545;53.726;-0.444;2022-07-01T00:11:36;1008.9;;;15.3;74.6
73316;BME280;61545;53.726;-0.444;2022-07-01T00:16:36;1008.8;;;15.2;75.1
73316;BME280;61545;53.726;-0.444;2022-07-01T00:21:36;1008.8;;;15.3;75.3
73316;BME280;61545;53.726;-0.444;2022-07-01T00:26:36;1008.9;;;15.1;75.6
73316;BME280;61545;53.726;-0.444;2022-07-01T00:31:36;1008.8;;;14.9;75.9
73316;BME280;61545;53.726;-0.444;2022-07-01T00:36:36;1008.7;;;15.1;76.3
73316;BME280;61545;53.726;-0.444;2022-07-01T00:41:36;1008.7;;;15.0;76.3
73316;BME280;61545;53.726;-0.444;2022-07-01T00:46:36;1008.7;;;14.9;76.5
73316;BME280;61545;53.726;-0.444;2022-07-01T00:51:36;1008.6;;;14.9;76.6
73316;BME280;61545;53.726;-0.444;2022-07-01T00:56:36;1008.5;;;14.6;77.0
73316;BME280;61545;53.726;-0.444;2022-07-01T01:01:36;1008.5;;;14.8;77.3
73316;BME280;61545;53.726;-0.444;2022-07-01T01:06:36;1008.5;;;14.7;77.3
73316;BME280;61545;53.726;-0.444;2022-07-01T01:11:36;1008.4;;;14.7;77.4
73316;BME280;61545;53.726;-0.444;2022-07-01T01:16:36;1008.5;;;14.9;77.6
73316;BME280;61545;53.726;-0.444;2022-07-01T01:21:36;1008.5;;;14.9;77.6
73316;BME280;61545;53.726;-0.444;2022-07-01T01:26:36;1008.5;;;14.9;77.7
73316;BME280;61545;53.726;-0.444;2022-07-01T01:31:36;1008.5;;;14.6;77.8
73316;BME280;61545;53.726;-0.444;2022-07-01T01:36:36;1008.5;;;14.9;78.2
73316;BME280;61545;53.726;-0.444;2022-07-01T01:41:36;1008.5;;;14.7;78.2
73316;BME280;61545;53.726;-0.444;2022-07-01T01:46:36;1008.5;;;14.5;78.3
73316;BME280;61545;53.726;-0.444;2022-07-01T01:51:36;1008.6;;;14.6;78.4
73316;BME280;61545;53.726;-0.444;2022-07-01T01:56:36;1008.6;;;14.5;78.3
73316;BME280;61545;53.726;-0.444;2022-07-01T02:01:36;1008.6;;;14.6;78.4
73316;BME280;61545;53.726;-0.444;2022-07-01T02:06:36;1008.7;;;14.5;78.5
73316;BME280;61545;53.726;-0.444;2022-07-01T02:11:36;1008.7;;;14.5;78.5
73316;BME280;61545;53.726;-0.444;2022-07-01T02:16:36;1008.6;;;14.5;78.5
73316;BME280;61545;53.726;-0.444;2022-07-01T02:21:36;1008.7;;;14.5;78.5
73316;BME280;61545;53.726;-0.444;2022-07-01T02:26:36;1008.7;;;14.4;78.6
73316;BME280;61545;53.726;-0.444;2022-07-01T02:31:36;1008.8;;;14.4;78.9
73316;BME280;61545;53.726;-0.444;2022-07-01T02:36:36;1008.8;;;14.4;79.1
73316;BME280;61545;53.726;-0.444;2022-07-01T02:41:36;1008.8;;;14.4;79.3
73316;BME280;61545;53.726;-0.444;2022-07-01T02:46:36;1008.9;;;14.0;79.4
73316;BME280;61545;53.726;-0.444;2022-07-01T02:51:36;1008.9;;;14.2;79.4
73316;BME280;61545;53.726;-0.444;2022-07-01T02:56:36;1008.9;;;14.4;79.5
73316;BME280;61545;53.726;-0.444;2022-07-01T03:01:36;1009.0;;;14.2;79.6
73316;BME280;61545;53.726;-0.444;2022-07-01T03:06:36;1009.0;;;14.3;79.6
73316;BME280;61545;53.726;-0.444;2022-07-01T03:11:36;1009.0;;;14.2;79.8
73316;BME280;61545;53.726;-0.444;2022-07-01T03:16:36;1009.1;;;14.4;79.8
73316;BME280;61545;53.726;-0.444;2022-07-01T03:21:36;1009.1;;;14.2;80.0
73316;BME280;61545;53.726;-0.444;2022-07-01T03:26:36;1009.1;;;14.2;79.9
73316;BME280;61545;53.726;-0.444;2022-07-01T03:31:36;1009.1;;;14.1;80.4
73316;BME280;61545;53.726;-0.444;2022-07-01T03:36:36;1009.1;;;14.1;80.3
73316;BME280;61545;53.726;-0.444;2022-07-01T03:41:36;1009.2;;;14.3;80.3
73316;BME280;61545;53.726;-0.444;2022-07-01T03:46:36;1009.2;;;14.4;80.2
73316;BME280;61545;53.726;-0.444;2022-07-01T03:51:36;1009.3;;;14.2;80.1
73316;BME280;61545;53.726;-0.444;2022-07-01T03:56:36;1009.4;;;14.1;80.1
73316;BME280;61545;53.726;-0.444;2022-07-01T04:01:36;1009.4;;;14.2;80.3
73316;BME280;61545;53.726;-0.444;2022-07-01T04:06:36;1009.4;;;14.2;80.2
73316;BME280;61545;53.726;-0.444;2022-07-01T04:11:36;1009.4;;;14.2;80.1
73316;BME280;61545;53.726;-0.444;2022-07-01T04:16:36;1009.5;;;14.2;80.2
73316;BME280;61545;53.726;-0.444;2022-07-01T04:21:36;1009.5;;;14.3;80.0
73316;BME280;61545;53.726;-0.444;2022-07-01T04:26:36;1009.5;;;14.4;80.2
73316;BME280;61545;53.726;-0.444;2022-07-01T04:31:36;1009.6;;;14.2;80.7
73316;BME280;61545;53.726;-0.444;2022-07-01T04:36:36;1009.6;;;14.1;81.0
73316;BME280;61545;53.726;-0.444;2022-07-01T04:41:36;1009.6;;;14.1;81.5
73316;BME280;61545;53.726;-0.444;2022-07-01T04:46:36;1009.6;;;14.1;81.6
73316;BME280;61545;53.726;-0.444;2022-07-01T04:51:36;1009.6;;;14.1;81.9
73316;BME280;61545;53.726;-0.444;2022-07-01T04:56:36;1009.6;;;14.0;82.4
73316;BME280;61545;53.726;-0.444;2022-07-01T05:01:36;1009.5;;;14.0;82.9
73316;BME280;61545;53.726;-0.444;2022-07-01T05:06:36;1009.6;;;14.1;83.2
73316;BME280;61545;53.726;-0.444;2022-07-01T05:11:36;1009.6;;;14.1;83.4
73316;BME280;61545;53.726;-0.444;2022-07-01T05:16:36;1009.6;;;14.0;83.4
73316;BME280;61545;53.726;-0.444;2022-07-01T05:21:36;1009.6;;;14.1;83.4
73316;BME280;61545;53.726;-0.444;2022-07-01T05:26:36;1009.5;;;14.2;83.6
73316;BME280;61545;53.726;-0.444;2022-07-01T05:31:36;1009.4;;;14.2;83.9
73316;BME280;61545;53.726;-0.444;2022-07-01T05:36:36;1009.4;;;14.1;84.1
73316;BME280;61545;53.726;-0.444;2022-07-01T05:41:36;1009.4;;;14.2;84.3
73316;BME280;61545;53.726;-0.444;2022-07-01T05:46:36;1009.4;;;14.0;84.3
73316;BME280;61545;53.726;-0.444;2022-07-01T05:51:36;1009.4;;;13.9;84.6
73316;BME280;61545;53.726;-0.444;2022-07-01T05:56:36;1009.3;;;14.0;84.8
73316;BME280;61545;53.726;-0.444;2022-07-01T06:01:36;1009.3;;;14.2;85.0
73316;BME280;61545;53.726;-0.444;2022-07-01T06:06:36;1009.3;;;14.0;85.0
73316;BME280;61545;53.726;-0.444;2022-07-01T06:11:36;1009.2;;;14.0;84.9
73316;BME280;61545;53.726;-0.444;2022-07-01T06:16:36;1009.1;;;14.1;85.1
73316;BME280;61545;53.726;-0.444;2022-07-01T06:21:36;1009.2;;;14.0;85.2
73316;BME280;61545;53.726;-0.444;2022-07-01T06:26:36;1009.3;;;14.1;85.2
73316;BME280;61545;53.726;-0.444;2022-07-01T06:31:36;1009.2;;;14.1;85.4
73316;BME280;61545;53.726;-0.444;2022-07-01T06:36:36;1009.3;;;14.1;85.4
73316;BME280;61545;53.726;-0.444;2022-07-01T06:41:36;1009.2;;;14.0;85.3
73316;BME280;61545;53.726;-0.444;2022-07-01T06:46:36;1009.2;;;14.2;85.2
73316;BME280;61545;53.726;-0.444;2022-07-01T06:51:36;1009.3;;;14.4;85.1
73316;BME280;61545;53.726;-0.444;2022-07-01T06:56:36;1009.3;;;14.4;84.6
73316;BME280;61545;53.726;-0.444;2022-07-01T07:01:36;1009.4;;;14.4;84.1
73316;BME280;61545;53.726;-0.444;2022-07-01T07:06:36;1009.4;;;14.5;83.6
73316;BME280;61545;53.726;-0.444;2022-07-01T07:11:36;1009.3;;;14.9;82.6
73316;BME280;61545;53.726;-0.444;2022-07-01T07:16:36;1009.3;;;14.9;81.6
73316;BME280;61545;53.726;-0.444;2022-07-01T07:21:36;1009.4;;;14.9;81.0
73316;BME280;61545;53.726;-0.444;2022-07-01T07:26:36;1009.4;;;15.0;80.6
73316;BME280;61545;53.726;-0.444;2022-07-01T07:31:36;1009.5;;;15.3;80.5
73316;BME280;61545;53.726;-0.444;2022-07-01T07:36:36;1009.5;;;15.4;79.7
73316;BME280;61545;53.726;-0.444;2022-07-01T07:41:36;1009.5;;;15.5;78.9
73316;BME280;61545;53.726;-0.444;2022-07-01T07:46:36;1009.5;;;15.6;78.0
73316;BME280;61545;53.726;-0.444;2022-07-01T07:51:36;1009.5;;;15.6;77.7
73316;BME280;61545;53.726;-0.444;2022-07-01T07:56:36;1009.6;;;15.7;77.2
73316;BME280;61545;53.726;-0.444;2022-07-01T08:01:36;1009.6;;;16.2;76.4
73316;BME280;61545;53.726;-0.444;2022-07-01T08:06:36;1009.6;;;16.2;75.3
73316;BME280;61545;53.726;-0.444;2022-07-01T08:11:36;1009.6;;;16.2;74.6
73316;BME280;61545;53.726;-0.444;2022-07-01T08:16:36;1009.7;;;16.4;74.0
73316;BME280;61545;53.726;-0.444;2022-07-01T08:21:36;1009.7;;;16.9;73.0
73316;BME280;61545;53.726;-0.444;2022-07-01T08:26:36;1009.7;;;16.7;72.0
73316;BME280;61545;53.726;-0.444;2022-07-01T08:31:36;1009.7;;;16.5;71.5
73316;BME280;61545;53.726;-0.444;2022-07-01T08:36:36;1009.7;;;16.3;71.3
73316;BME280;61545;53.726;-0.444;2022-07-01T08:41:36;1009.8;;;16.3;71.0
73316;BME280;61545;53.726;-0.444;2022-07-01T08:46:36;1009.7;;;16.5;71.1
73316;BME280;61545;53.726;-0.444;2022-07-01T08:51:36;1009.7;;;16.7;70.6
73316;BME280;61545;53.726;-0.444;2022-07-01T08:56:36;1009.7;;;16.8;70.2
73316;BME280;61545;53.726;-0.444;2022-07-01T09:01:36;1009.7;;;16.9;69.5
73316;BME280;61545;53.726;-0.444;2022-07-01T09:06:36;1009.7;;;17.0;68.7
73316;BME280;61545;53.726;-0.444;2022-07-01T09:11:36;1009.7;;;17.0;68.1
73316;BME280;61545;53.726;-0.444;2022-07-01T09:16:40;1009.6;;;17.1;67.9
73316;BME280;61545;53.726;-0.444;2022-07-01T09:21:36;1009.7;;;17.2;67.6
73316;BME280;61545;53.726;-0.444;2022-07-01T09:26:36;1009.7;;;17.5;66.9
73316;BME280;61545;53.726;-0.444;2022-07-01T09:31:36;1009.7;;;17.8;66.0
73316;BME280;61545;53.726;-0.444;2022-07-01T09:36:38;1009.7;;;17.8;65.3
73316;BME280;61545;53.726;-0.444;2022-07-01T09:41:36;1009.8;;;17.7;65.0
73316;BME280;61545;53.726;-0.444;2022-07-01T09:46:36;1009.8;;;17.6;64.8
73316;BME280;61545;53.726;-0.444;2022-07-01T09:51:36;1009.8;;;17.5;64.4
73316;BME280;61545;53.726;-0.444;2022-07-01T09:56:36;1009.7;;;18.2;63.4
73316;BME280;61545;53.726;-0.444;2022-07-01T10:01:37;1009.8;;;17.7;62.3
73316;BME280;61545;53.726;-0.444;2022-07-01T10:06:58;1009.8;;;17.4;62.6
73316;BME280;61545;53.726;-0.444;2022-07-01T10:11:55;1009.8;;;17.5;62.7
73316;BME280;61545;53.726;-0.444;2022-07-01T10:16:36;1009.9;;;17.4;62.4
73316;BME280;61545;53.726;-0.444;2022-07-01T10:21:36;1009.9;;;17.7;62.4
73316;BME280;61545;53.726;-0.444;2022-07-01T10:26:36;1009.9;;;18.0;61.6
73316;BME280;61545;53.726;-0.444;2022-07-01T10:31:37;1009.9;;;18.3;61.0
73316;BME280;61545;53.726;-0.444;2022-07-01T10:36:36;1009.9;;;17.9;60.6
73316;BME280;61545;53.726;-0.444;2022-07-01T10:41:37;1009.9;;;17.9;60.7
73316;BME280;61545;53.726;-0.444;2022-07-01T10:46:38;1009.9;;;18.2;60.8
73316;BME280;61545;53.726;-0.444;2022-07-01T10:51:52;1009.8;;;18.6;60.2
73316;BME280;61545;53.726;-0.444;2022-07-01T10:56:37;1009.9;;;18.5;60.1
73316;BME280;61545;53.726;-0.444;2022-07-01T11:01:36;1010.0;;;18.1;59.9
73316;BME280;61545;53.726;-0.444;2022-07-01T11:06:36;1010.0;;;17.5;59.4
73316;BME280;61545;53.726;-0.444;2022-07-01T11:11:36;1010.1;;;17.0;61.3
73316;BME280;61545;53.726;-0.444;2022-07-01T11:16:36;1010.0;;;17.0;62.9
73316;BME280;61545;53.726;-0.444;2022-07-01T11:21:36;1010.1;;;17.0;64.0
73316;BME280;61545;53.726;-0.444;2022-07-01T11:26:36;1010.1;;;17.2;65.0
73316;BME280;61545;53.726;-0.444;2022-07-01T11:31:36;1010.1;;;17.2;65.2
73316;BME280;61545;53.726;-0.444;2022-07-01T11:36:36;1010.1;;;17.1;65.5
73316;BME280;61545;53.726;-0.444;2022-07-01T11:41:36;1010.1;;;17.2;66.2
73316;BME280;61545;53.726;-0.444;2022-07-01T11:46:36;1010.0;;;17.2;65.6
73316;BME280;61545;53.726;-0.444;2022-07-01T11:51:36;1010.1;;;17.4;65.2
73316;BME280;61545;53.726;-0.444;2022-07-01T11:56:36;1010.1;;;17.6;64.7
73316;BME280;61545;53.726;-0.444;2022-07-01T12:01:37;1010.0;;;18.0;63.8
73316;BME280;61545;53.726;-0.444;2022-07-01T12:06:36;1010.0;;;19.0;61.8
73316;BME280;61545;53.726;-0.444;2022-07-01T12:11:36;1010.0;;;19.6;57.3
73316;BME280;61545;53.726;-0.444;2022-07-01T12:16:38;1010.1;;;19.7;52.6
73316;BME280;61545;53.726;-0.444;2022-07-01T12:21:48;1010.1;;;19.2;52.6
73316;BME280;61545;53.726;-0.444;2022-07-01T12:26:46;1010.2;;;19.5;53.2
73316;BME280;61545;53.726;-0.444;2022-07-01T12:31:39;1010.1;;;19.9;52.1
73316;BME280;61545;53.726;-0.444;2022-07-01T12:36:36;1010.0;;;20.3;48.0
73316;BME280;61545;53.726;-0.444;2022-07-01T12:41:36;1009.9;;;20.7;46.3
73316;BME280;61545;53.726;-0.444;2022-07-01T12:46:36;1010.0;;;20.7;46.9
73316;BME280;61545;53.726;-0.444;2022-07-01T12:51:36;1010.0;;;20.7;47.2
73316;BME280;61545;53.726;-0.444;2022-07-01T12:56:36;1010.1;;;19.9;48.9
73316;BME280;61545;53.726;-0.444;2022-07-01T13:01:36;1010.2;;;19.7;50.3
73316;BME280;61545;53.726;-0.444;2022-07-01T13:06:36;1010.2;;;19.3;50.3
73316;BME280;61545;53.726;-0.444;2022-07-01T13:11:36;1010.2;;;19.1;50.4
73316;BME280;61545;53.726;-0.444;2022-07-01T13:16:36;1010.1;;;19.3;50.8
73316;BME280;61545;53.726;-0.444;2022-07-01T13:21:36;1010.1;;;19.9;50.2
73316;BME280;61545;53.726;-0.444;2022-07-01T13:26:37;1010.2;;;19.9;50.1
73316;BME280;61545;53.726;-0.444;2022-07-01T13:31:36;1010.2;;;20.2;49.6
73316;BME280;61545;53.726;-0.444;2022-07-01T13:36:36;1010.2;;;19.7;50.2
73316;BME280;61545;53.726;-0.444;2022-07-01T13:41:36;1010.2;;;19.5;51.2
73316;BME280;61545;53.726;-0.444;2022-07-01T13:46:36;1010.3;;;19.4;52.6
73316;BME280;61545;53.726;-0.444;2022-07-01T13:51:36;1010.5;;;19.2;52.9
73316;BME280;61545;53.726;-0.444;2022-07-01T13:56:36;1010.6;;;18.8;53.9
73316;BME280;61545;53.726;-0.444;2022-07-01T14:01:36;1010.5;;;18.7;55.1
73316;BME280;61545;53.726;-0.444;2022-07-01T14:06:36;1010.5;;;18.7;55.7
73316;BME280;61545;53.726;-0.444;2022-07-01T14:11:36;1010.5;;;18.4;56.0
73316;BME280;61545;53.726;-0.444;2022-07-01T14:16:36;1010.6;;;18.8;55.9
73316;BME280;61545;53.726;-0.444;2022-07-01T14:21:36;1010.5;;;19.1;55.5
73316;BME280;61545;53.726;-0.444;2022-07-01T14:26:36;1010.5;;;19.7;54.2
73316;BME280;61545;53.726;-0.444;2022-07-01T14:31:36;1010.5;;;19.2;53.5
73316;BME280;61545;53.726;-0.444;2022-07-01T14:36:36;1010.5;;;18.9;53.8
73316;BME280;61545;53.726;-0.444;2022-07-01T14:41:36;1010.5;;;18.9;54.7
73316;BME280;61545;53.726;-0.444;2022-07-01T14:46:36;1010.9;;;18.6;55.6
73316;BME280;61545;53.726;-0.444;2022-07-01T14:51:36;1010.9;;;18.0;59.3
73316;BME280;61545;53.726;-0.444;2022-07-01T14:56:36;1011.0;;;17.7;62.7
73316;BME280;61545;53.726;-0.444;2022-07-01T15:01:36;1011.1;;;17.8;64.8
73316;BME280;61545;53.726;-0.444;2022-07-01T15:06:36;1011.1;;;17.7;65.7
73316;BME280;61545;53.726;-0.444;2022-07-01T15:11:36;1011.1;;;17.9;66.2
73316;BME280;61545;53.726;-0.444;2022-07-01T15:16:36;1011.1;;;18.2;66.0
73316;BME280;61545;53.726;-0.444;2022-07-01T15:21:36;1011.1;;;18.5;65.6
73316;BME280;61545;53.726;-0.444;2022-07-01T15:26:36;1011.1;;;18.6;64.9
73316;BME280;61545;53.726;-0.444;2022-07-01T15:31:36;1011.1;;;18.4;64.9
73316;BME280;61545;53.726;-0.444;2022-07-01T15:36:36;1011.1;;;18.4;65.0
73316;BME280;61545;53.726;-0.444;2022-07-01T15:41:37;1011.1;;;18.4;65.0
73316;BME280;61545;53.726;-0.444;2022-07-01T15:46:36;1011.3;;;18.0;64.8
73316;BME280;61545;53.726;-0.444;2022-07-01T15:51:36;1011.3;;;18.0;64.7
73316;BME280;61545;53.726;-0.444;2022-07-01T15:56:36;1011.3;;;18.0;64.6
73316;BME280;61545;53.726;-0.444;2022-07-01T16:01:36;1011.4;;;17.8;64.4
73316;BME280;61545;53.726;-0.444;2022-07-01T16:06:36;1011.4;;;17.5;65.1
73316;BME280;61545;53.726;-0.444;2022-07-01T16:11:36;1011.3;;;17.5;65.4
73316;BME280;61545;53.726;-0.444;2022-07-01T16:16:36;1011.3;;;17.6;65.3
73316;BME280;61545;53.726;-0.444;2022-07-01T16:21:36;1011.3;;;17.8;65.1
73316;BME280;61545;53.726;-0.444;2022-07-01T16:26:36;1011.2;;;17.7;64.9
73316;BME280;61545;53.726;-0.444;2022-07-01T16:31:36;1011.2;;;17.8;64.9
73316;BME280;61545;53.726;-0.444;2022-07-01T16:36:36;1011.2;;;17.9;64.3
73316;BME280;61545;53.726;-0.444;2022-07-01T16:41:39;1011.3;;;17.9;63.7
73316;BME280;61545;53.726;-0.444;2022-07-01T16:46:37;1011.3;;;17.9;63.2
73316;BME280;61545;53.726;-0.444;2022-07-01T16:51:36;1011.3;;;17.8;62.5
73316;BME280;61545;53.726;-0.444;2022-07-01T16:56:36;1011.2;;;18.0;61.7
73316;BME280;61545;53.726;-0.444;2022-07-01T17:01:36;1011.3;;;18.0;61.1
73316;BME280;61545;53.726;-0.444;2022-07-01T17:06:37;1011.3;;;18.0;60.8
73316;BME280;61545;53.726;-0.444;2022-07-01T17:11:36;1011.3;;;18.1;60.4
73316;BME280;61545;53.726;-0.444;2022-07-01T17:16:36;1011.3;;;18.0;59.8
73316;BME280;61545;53.726;-0.444;2022-07-01T17:21:38;1011.3;;;18.1;59.1
73316;BME280;61545;53.726;-0.444;2022-07-01T17:26:42;1011.3;;;18.4;57.9
73316;BME280;61545;53.726;-0.444;2022-07-01T17:31:39;1011.3;;;18.2;57.1
73316;BME280;61545;53.726;-0.444;2022-07-01T17:36:36;1011.4;;;18.1;57.2
73316;BME280;61545;53.726;-0.444;2022-07-01T17:41:37;1011.4;;;17.8;57.0
73316;BME280;61545;53.726;-0.444;2022-07-01T17:46:37;1011.4;;;17.7;57.5
73316;BME280;61545;53.726;-0.444;2022-07-01T17:51:36;1011.4;;;17.7;57.6
73316;BME280;61545;53.726;-0.444;2022-07-01T17:56:36;1011.4;;;17.5;57.9
73316;BME280;61545;53.726;-0.444;2022-07-01T18:01:36;1011.5;;;17.5;58.1
73316;BME280;61545;53.726;-0.444;2022-07-01T18:06:37;1011.4;;;17.6;58.5
73316;BME280;61545;53.726;-0.444;2022-07-01T18:11:37;1011.4;;;17.6;58.4
73316;BME280;61545;53.726;-0.444;2022-07-01T18:16:56;1011.4;;;17.8;58.2
73316;BME280;61545;53.726;-0.444;2022-07-01T18:21:36;1011.4;;;17.7;58.0
73316;BME280;61545;53.726;-0.444;2022-07-01T18:26:37;1011.3;;;17.6;57.9
73316;BME280;61545;53.726;-0.444;2022-07-01T18:31:36;1011.4;;;17.7;58.0
73316;BME280;61545;53.726;-0.444;2022-07-01T18:36:40;1011.4;;;17.5;58.2
73316;BME280;61545;53.726;-0.444;2022-07-01T18:41:36;1011.5;;;17.5;58.4
73316;BME280;61545;53.726;-0.444;2022-07-01T18:46:36;1011.5;;;17.5;58.5
73316;BME280;61545;53.726;-0.444;2022-07-01T18:51:36;1011.5;;;17.4;58.9
73316;BME280;61545;53.726;-0.444;2022-07-01T18:56:36;1011.6;;;17.4;59.3
73316;BME280;61545;53.726;-0.444;2022-07-01T19:01:36;1011.6;;;17.3;59.8
73316;BME280;61545;53.726;-0.444;2022-07-01T19:06:37;1011.6;;;17.3;60.2
73316;BME280;61545;53.726;-0.444;2022-07-01T19:11:36;1011.7;;;17.2;60.5
73316;BME280;61545;53.726;-0.444;2022-07-01T19:16:36;1011.7;;;17.2;60.7
73316;BME280;61545;53.726;-0.444;2022-07-01T19:21:36;1011.6;;;17.2;60.8
73316;BME280;61545;53.726;-0.444;2022-07-01T19:26:36;1011.7;;;17.0;60.9
73316;BME280;61545;53.726;-0.444;2022-07-01T19:31:36;1011.6;;;17.0;61.1
73316;BME280;61545;53.726;-0.444;2022-07-01T19:36:36;1011.7;;;17.0;61.5
73316;BME280;61545;53.726;-0.444;2022-07-01T19:41:36;1011.8;;;17.0;61.9
73316;BME280;61545;53.726;-0.444;2022-07-01T19:46:36;1011.8;;;16.9;62.4
73316;BME280;61545;53.726;-0.444;2022-07-01T19:51:36;1011.8;;;16.8;62.6
73316;BME280;61545;53.726;-0.444;2022-07-01T19:56:36;1011.8;;;16.8;62.9
73316;BME280;61545;53.726;-0.444;2022-07-01T20:01:36;1011.9;;;16.8;63.1
73316;BME280;61545;53.726;-0.444;2022-07-01T20:06:36;1011.9;;;16.7;63.4
73316;BME280;61545;53.726;-0.444;2022-07-01T20:11:36;1011.9;;;16.7;63.7
73316;BME280;61545;53.726;-0.444;2022-07-01T20:16:36;1012.0;;;16.7;63.9
73316;BME280;61545;53.726;-0.444;2022-07-01T20:21:36;1012.0;;;16.6;64.2
73316;BME280;61545;53.726;-0.444;2022-07-01T20:26:36;1012.1;;;16.5;64.3
73316;BME280;61545;53.726;-0.444;2022-07-01T20:31:36;1012.1;;;16.7;64.3
73316;BME280;61545;53.726;-0.444;2022-07-01T20:36:36;1012.2;;;16.6;64.4
73316;BME280;61545;53.726;-0.444;2022-07-01T20:41:36;1012.3;;;16.5;64.3
73316;BME280;61545;53.726;-0.444;2022-07-01T20:46:36;1012.3;;;16.5;64.1
73316;BME280;61545;53.726;-0.444;2022-07-01T20:51:36;1012.4;;;16.4;64.0
73316;BME280;61545;53.726;-0.444;2022-07-01T20:56:36;1012.5;;;16.4;64.3
73316;BME280;61545;53.726;-0.444;2022-07-01T21:01:36;1012.5;;;16.4;64.6
73316;BME280;61545;53.726;-0.444;2022-07-01T21:06:36;1012.5;;;16.4;64.9
73316;BME280;61545;53.726;-0.444;2022-07-01T21:11:36;1012.4;;;16.4;65.2
73316;BME280;61545;53.726;-0.444;2022-07-01T21:16:36;1012.5;;;16.4;65.6
73316;BME280;61545;53.726;-0.444;2022-07-01T21:21:36;1012.5;;;16.2;65.9
73316;BME280;61545;53.726;-0.444;2022-07-01T21:26:36;1012.6;;;16.2;66.3
73316;BME280;61545;53.726;-0.444;2022-07-01T21:31:36;1012.6;;;16.1;66.5
73316;BME280;61545;53.726;-0.444;2022-07-01T21:36:37;1012.6;;;16.2;66.6
73316;BME280;61545;53.726;-0.444;2022-07-01T21:41:37;1012.7;;;16.2;66.7
73316;BME280;61545;53.726;-0.444;2022-07-01T21:46:36;1012.7;;;16.2;66.7
73316;BME280;61545;53.726;-0.444;2022-07-01T21:51:37;1012.8;;;16.1;66.7
73316;BME280;61545;53.726;-0.444;2022-07-01T21:56:36;1012.8;;;16.1;66.8
73316;BME280;61545;53.726;-0.444;2022-07-01T22:01:36;1012.8;;;16.1;66.7
73316;BME280;61545;53.726;-0.444;2022-07-01T22:06:36;1012.8;;;16.0;66.8
73316;BME280;61545;53.726;-0.444;2022-07-01T22:11:36;1012.8;;;16.0;66.9
73316;BME280;61545;53.726;-0.444;2022-07-01T22:16:36;1012.8;;;16.0;67.0
73316;BME280;61545;53.726;-0.444;2022-07-01T22:21:36;1012.8;;;16.0;67.1
73316;BME280;61545;53.726;-0.444;2022-07-01T22:26:36;1012.8;;;15.9;67.4
73316;BME280;61545;53.726;-0.444;2022-07-01T22:31:36;1012.8;;;16.0;67.6
73316;BME280;61545;53.726;-0.444;2022-07-01T22:36:36;1012.8;;;15.9;67.5
73316;BME280;61545;53.726;-0.444;2022-07-01T22:41:37;1012.8;;;16.0;67.4
73316;BME280;61545;53.726;-0.444;2022-07-01T22:46:45;1012.8;;;16.0;67.2
73316;BME280;61545;53.726;-0.444;2022-07-01T22:51:50;1012.8;;;16.0;67.2
73316;BME280;61545;53.726;-0.444;2022-07-01T22:56:36;1012.8;;;16.0;67.1
73316;BME280;61545;53.726;-0.444;2022-07-01T23:01:39;1012.8;;;15.9;67.1
73316;BME280;61545;53.726;-0.444;2022-07-01T23:06:37;1012.8;;;16.0;67.1
73316;BME280;61545;53.726;-0.444;2022-07-01T23:11:36;1012.8;;;15.9;67.1
73316;BME280;61545;53.726;-0.444;2022-07-01T23:16:36;1012.8;;;15.9;67.0
73316;BME280;61545;53.726;-0.444;2022-07-01T23:21:36;1012.7;;;15.9;66.7
73316;BME280;61545;53.726;-0.444;2022-07-01T23:26:36;1012.7;;;15.8;66.4
73316;BME280;61545;53.726;-0.444;2022-07-01T23:31:37;1012.6;;;15.9;66.2
73316;BME280;61545;53.726;-0.444;2022-07-01T23:36:36;1012.7;;;15.9;65.8
73316;BME280;61545;53.726;-0.444;2022-07-01T23:41:36;1012.7;;;15.8;65.5
73316;BME280;61545;53.726;-0.444;2022-07-01T23:46:36;1012.7;;;15.7;65.2
73316;BME280;61545;53.726;-0.444;2022-07-01T23:51:36;1012.6;;;15.7;65.1
73316;BME280;61545;53.726;-0.444;2022-07-01T23:56:36;1012.6;;;15.7;65.0
